KCNO/CNO METAR and TAF weather

Enter ICAO airport designator
Station Type Date Time Source
KCNO METAR 2021/10/24 20:53 UTC NOAA

KCNO 242053Z 29005KT 10SM SCT040 BKN150 23/12 A2991 RMK AO2 SLP126 T02280117 58017


Station Type Date Time Source
KCNO Decoded METAR 2021/10/24 20:53 UTC NOAA

CHINO AIRPORT, CA, United States (KCNO) 33-58N 117-38W 207M
Oct 24, 2021 - 04:53 PM EDT / 2021.10.24 2053 UTC
Wind: from the WNW (290 degrees) at 6 MPH (5 KT):0
Visibility: 10 mile(s):0
Sky conditions: mostly cloudy
Temperature: 73.0 F (22.8 C)
Dew Point: 53.1 F (11.7 C)
Relative Humidity: 49%
Pressure (altimeter): 29.91 in. Hg (1012 hPa)
Pressure tendency: 0.05 inches (1.7 hPa) lower than three hours ago
ob: KCNO 242053Z 29005KT 10SM SCT040 BKN150 23/12 A2991 RMK AO2 SLP126 T02280117 58017
cycle: 21

Station Type Date Time Source
KCNO TAF UTC NOAA

Error!

Example: see airport list